Hauptseite
METAR-TAF:

METAR-TAF

Flughäfen :

Memmingen, Deutschland

Breite: 47-59-33N, Länge: 10-14-37E, Höhe: 633 m

Beobachtung

Neuester Wetterbericht von vor 22 Minuten, um 07:20 UTC
Wind 3 kt aus Nordost
Temperatur -2°C
Luftfeuchtigkeit 93%
Luftdruck 1030 hPa
Sichtweite 10 km oder mehr
keine Wolken unter 1500 m und keine Kumulonimbus oder Gewitterwolken

METAR: EDJA 010720Z 04003KT CAVOK M02/M03 Q1030

Zeit: 08:42 (07:42 UTC)

Prognose

Neuester Wetterbericht von vor 2 Stunden und 42 Minuten, um 05:00 UTC
Gültige Prognose vom 01 um 06 UTC bis 01 um 15 UTC
Wind 5 kt aus Nordost
Sichtweite 10 km oder mehr
keine Wolken unter 1500 m und keine Kumulonimbus oder Gewitterwolken
Übergehend zu
vom 01 um 09 UTC bis 01 um 11 UTC
Wind 10 kt aus Ost/Nordost

TAF: EDJA 010500Z 0106/0115 05005KT CAVOK BECMG 0109/0111 06010KT

Wetterbeobachtungen und Prognosen von mehr als 4000 Flughäfen (METAR und TAF Bericht).

Die verfügbaren Stationen werden durch gelbe und rote Markierungen auf der Karte dargestellt.

Führen Sie die Maus auf sie, um den Namen der Station zu sehen.

Darauf klicken, um die Beobachtung von Wetterbeobachtungen und Prognosen zu sehen.

Um die Karte zu ändern : klicken Sie auf den grünen Tasten mit einem schwarzen Kreuz Zum Vergrößern, auf den grünen Button mit einem Gedankenstrich zu verkleinern, oder auf die grünen Pfeile für benachbarte Karten.


METAR-TAF: